createdAt,value
2024-02-26T00:03:24.766Z,27.10
2024-02-26T00:08:28.221Z,32.03
2024-02-26T00:13:31.643Z,32.00
2024-02-26T00:18:35.547Z,24.23
2024-02-26T00:23:39.183Z,29.97
2024-02-26T00:28:42.743Z,31.20
2024-02-26T00:33:46.443Z,36.80
2024-02-26T00:38:52.312Z,30.60
2024-02-26T00:43:55.612Z,37.73
2024-02-26T00:48:59.299Z,30.73
2024-02-26T00:54:03.544Z,26.30
2024-02-26T00:59:07.493Z,23.07
2024-02-26T01:04:10.871Z,34.40
2024-02-26T01:09:14.403Z,29.40
2024-02-26T01:14:17.906Z,24.60
2024-02-26T01:19:22.299Z,27.73
2024-02-26T01:24:25.797Z,28.33
2024-02-26T01:29:29.361Z,35.03
2024-02-26T01:34:33.260Z,38.67
2024-02-26T01:39:36.928Z,38.63
2024-02-26T01:44:41.811Z,46.57
2024-02-26T01:49:45.376Z,30.27
2024-02-26T01:54:49.149Z,24.63
2024-02-26T01:59:52.617Z,27.27
2024-02-26T02:04:56.183Z,23.73
2024-02-26T02:10:00.062Z,32.20
2024-02-26T02:15:03.985Z,21.60
2024-02-26T02:20:18.114Z,23.67
2024-02-26T02:25:21.547Z,28.37
2024-02-26T02:30:30.653Z,23.67
2024-02-26T02:35:34.350Z,20.43
2024-02-26T02:40:37.697Z,17.80
2024-02-26T02:45:41.108Z,42.50
2024-02-26T02:50:44.699Z,40.37
2024-02-26T02:55:47.992Z,40.03
2024-02-26T03:00:51.397Z,28.30
2024-02-26T03:05:54.685Z,36.17
2024-02-26T03:11:00.244Z,39.33
2024-02-26T03:16:07.490Z,35.07
2024-02-26T03:21:10.990Z,23.17
2024-02-26T03:26:16.050Z,29.13
2024-02-26T03:31:19.467Z,22.93
2024-02-26T03:36:23.114Z,24.23
2024-02-26T03:41:26.755Z,23.30
2024-02-26T03:46:30.311Z,31.30
2024-02-26T03:51:34.218Z,35.17
2024-02-26T03:56:37.610Z,31.93
2024-02-26T04:01:46.451Z,29.13
2024-02-26T04:06:50.045Z,29.43
2024-02-26T04:11:53.669Z,30.63
2024-02-26T04:16:56.993Z,21.57
2024-02-26T04:22:01.178Z,31.20
2024-02-26T04:27:04.736Z,22.73
2024-02-26T04:32:08.286Z,27.97
2024-02-26T04:37:11.699Z,28.17
2024-02-26T04:42:15.364Z,29.97
2024-02-26T04:47:18.730Z,25.70
2024-02-26T04:52:22.738Z,29.10
2024-02-26T04:57:27.357Z,37.73
2024-02-26T05:02:33.357Z,34.67
2024-02-26T05:07:42.812Z,31.47
2024-02-26T05:12:46.317Z,28.10
2024-02-26T05:17:49.890Z,29.90
2024-02-26T05:22:53.279Z,22.57
2024-02-26T05:27:56.709Z,16.47
2024-02-26T05:33:00.358Z,25.87
2024-02-26T05:38:03.919Z,20.97
2024-02-26T05:43:07.325Z,26.07
2024-02-26T05:48:10.921Z,20.20
2024-02-26T05:53:14.649Z,21.13
2024-02-26T05:58:17.934Z,25.07
2024-02-26T06:03:21.626Z,19.07
2024-02-26T06:08:25.304Z,24.53
2024-02-26T06:13:28.830Z,32.53
2024-02-26T06:18:32.460Z,25.70
2024-02-26T06:23:36.000Z,24.60
2024-02-26T06:28:41.983Z,24.97
2024-02-26T06:33:46.548Z,24.80
2024-02-26T06:38:50.578Z,21.80
2024-02-26T06:43:54.970Z,25.33
2024-02-26T06:48:58.882Z,19.67
2024-02-26T06:54:02.618Z,20.47
2024-02-26T06:59:06.013Z,19.30
2024-02-26T07:04:12.263Z,23.30
2024-02-26T07:09:16.776Z,28.77
2024-02-26T07:14:20.258Z,17.23
2024-02-26T07:19:23.977Z,18.37
2024-02-26T07:24:27.563Z,21.63
2024-02-26T07:29:31.082Z,15.60
2024-02-26T07:34:34.553Z,19.40
2024-02-26T07:39:38.392Z,20.03
2024-02-26T07:44:44.221Z,22.63
2024-02-26T07:49:47.779Z,18.53
2024-02-26T07:54:51.254Z,25.43
2024-02-26T07:59:54.732Z,21.90
2024-02-26T08:04:58.099Z,25.20
2024-02-26T08:10:01.771Z,20.10
2024-02-26T08:15:06.469Z,24.50
2024-02-26T08:20:11.852Z,21.90
2024-02-26T08:25:17.116Z,25.30
2024-02-26T08:30:20.608Z,25.10
2024-02-26T08:35:24.121Z,26.13
2024-02-26T08:40:27.760Z,33.07
2024-02-26T08:45:31.169Z,23.60
2024-02-26T08:50:34.946Z,24.80
2024-02-26T08:55:38.416Z,23.93
2024-02-26T09:00:42.203Z,19.50
2024-02-26T09:05:45.900Z,26.67
2024-02-26T09:10:49.305Z,26.43
2024-02-26T09:15:52.816Z,29.20
2024-02-26T09:20:56.515Z,24.20
2024-02-26T09:25:59.935Z,29.73
2024-02-26T09:31:03.631Z,25.93
2024-02-26T09:36:07.582Z,25.40
2024-02-26T09:41:19.906Z,24.77
2024-02-26T09:46:24.920Z,29.37
2024-02-26T09:51:28.632Z,28.03
2024-02-26T09:56:33.758Z,25.63
2024-02-26T10:01:40.041Z,22.47
2024-02-26T10:06:45.891Z,23.58
2024-02-26T10:11:50.817Z,24.67
2024-02-26T10:16:55.225Z,24.97
2024-02-26T10:21:59.833Z,23.97
2024-02-26T10:27:03.948Z,26.10
2024-02-26T10:32:07.552Z,26.00
2024-02-26T10:37:11.465Z,22.17
2024-02-26T10:42:16.304Z,19.48
2024-02-26T10:47:21.271Z,20.73
2024-02-26T10:52:26.931Z,29.10
2024-02-26T10:57:36.396Z,23.77
2024-02-26T11:02:41.082Z,17.95
2024-02-26T11:07:45.608Z,19.48
2024-02-26T11:12:50.817Z,21.48
2024-02-26T11:17:56.618Z,21.73
2024-02-26T11:23:00.102Z,21.13
2024-02-26T11:28:09.892Z,16.92
2024-02-26T11:33:14.970Z,14.93
2024-02-26T11:38:25.321Z,15.75
2024-02-26T11:44:04.304Z,14.10
2024-02-26T11:49:29.167Z,15.32
2024-02-26T11:54:54.402Z,13.15
2024-02-26T12:00:17.975Z,15.38
2024-02-26T12:05:26.036Z,12.02
2024-02-26T12:10:36.913Z,9.93
2024-02-26T12:15:59.345Z,14.45
2024-02-26T12:21:05.824Z,13.93
2024-02-26T12:26:11.942Z,17.35
2024-02-26T12:31:15.509Z,17.38
2024-02-26T12:36:18.798Z,32.92
2024-02-26T12:41:23.860Z,18.13
2024-02-26T12:46:27.333Z,20.08
2024-02-26T12:51:31.229Z,14.02
2024-02-26T12:56:35.813Z,11.80
2024-02-26T13:01:39.693Z,8.98
2024-02-26T13:06:43.368Z,12.25
2024-02-26T13:11:49.024Z,11.48
2024-02-26T13:16:59.346Z,10.18
2024-02-26T13:22:10.423Z,8.27
2024-02-26T13:27:13.689Z,18.42
2024-02-26T13:32:17.325Z,9.20
2024-02-26T13:37:21.471Z,7.38
2024-02-26T13:42:24.827Z,5.45
2024-02-26T13:47:28.252Z,16.83
2024-02-26T13:52:34.208Z,5.57
2024-02-26T13:57:37.775Z,3.75
2024-02-26T14:02:41.318Z,4.90
2024-02-26T14:07:45.019Z,3.28
2024-02-26T14:12:48.648Z,3.15
2024-02-26T14:17:58.407Z,6.03
2024-02-26T14:23:02.231Z,5.35
2024-02-26T14:28:06.193Z,19.98
2024-02-26T14:33:10.807Z,6.50
2024-02-26T14:38:14.623Z,5.68
2024-02-26T14:43:18.044Z,8.93
2024-02-26T14:48:21.584Z,8.52
2024-02-26T14:53:25.739Z,5.30
2024-02-26T14:58:29.097Z,7.15
2024-02-26T15:03:32.639Z,5.63
2024-02-26T15:08:36.055Z,6.00
2024-02-26T15:13:40.935Z,8.55
2024-02-26T15:18:44.480Z,7.88
2024-02-26T15:23:58.885Z,10.77
2024-02-26T15:29:09.924Z,13.40
2024-02-26T15:34:13.660Z,11.32
2024-02-26T15:39:18.405Z,13.82
2024-02-26T15:44:21.592Z,17.95
2024-02-26T15:49:25.324Z,13.60
2024-02-26T15:54:28.882Z,19.83
2024-02-26T15:59:32.369Z,16.07
2024-02-26T16:04:35.877Z,18.20
2024-02-26T16:09:40.098Z,16.47
2024-02-26T16:14:51.894Z,21.60
2024-02-26T16:19:55.564Z,35.07
2024-02-26T16:24:59.452Z,27.63
2024-02-26T16:30:06.052Z,35.50
2024-02-26T16:35:12.110Z,25.07
2024-02-26T16:40:18.445Z,26.90
2024-02-26T16:45:21.996Z,33.07
2024-02-26T16:50:27.393Z,30.27
2024-02-26T16:55:30.952Z,35.47
2024-02-26T17:00:35.159Z,33.90
2024-02-26T17:05:38.445Z,37.30
2024-02-26T17:10:42.245Z,44.27
2024-02-26T17:15:45.650Z,41.20
2024-02-26T17:20:49.204Z,49.93
2024-02-26T17:25:52.452Z,45.10
2024-02-26T17:30:55.959Z,39.67
2024-02-26T17:35:59.461Z,41.63
2024-02-26T17:41:04.529Z,44.17
2024-02-26T17:46:09.125Z,46.20
2024-02-26T17:51:12.855Z,42.63
2024-02-26T17:56:17.105Z,38.93
2024-02-26T18:01:20.955Z,37.70
2024-02-26T18:06:25.183Z,53.37
2024-02-26T18:11:29.470Z,38.77
2024-02-26T18:16:33.481Z,41.23
2024-02-26T18:21:36.940Z,37.20
2024-02-26T18:26:43.940Z,40.10
2024-02-26T18:31:48.672Z,44.20
2024-02-26T18:36:54.629Z,32.00
2024-02-26T18:41:58.748Z,34.07
2024-02-26T18:47:02.497Z,34.37
2024-02-26T18:52:06.544Z,52.30
2024-02-26T18:57:11.249Z,42.90
2024-02-26T19:02:14.807Z,43.20
2024-02-26T19:07:18.594Z,55.47
2024-02-26T19:12:27.447Z,55.33
2024-02-26T19:17:30.875Z,46.27
2024-02-26T19:22:34.350Z,52.93
2024-02-26T19:27:38.770Z,39.30
2024-02-26T19:32:42.523Z,41.30
2024-02-26T19:37:46.006Z,52.20
2024-02-26T19:42:49.952Z,46.03
2024-02-26T19:47:53.388Z,51.27
2024-02-26T19:52:59.591Z,43.63
2024-02-26T19:58:04.474Z,48.83
2024-02-26T20:03:08.152Z,38.40
2024-02-26T20:08:11.861Z,52.53
2024-02-26T20:13:15.162Z,46.50
2024-02-26T20:18:18.705Z,50.20
2024-02-26T20:23:22.176Z,58.23
2024-02-26T20:28:25.822Z,58.17
2024-02-26T20:33:29.543Z,64.23
2024-02-26T20:38:32.876Z,59.80
2024-02-26T20:43:36.701Z,60.80
2024-02-26T20:48:40.379Z,58.47
2024-02-26T20:53:45.314Z,75.27
2024-02-26T20:58:48.805Z,68.67
2024-02-26T21:03:52.413Z,64.93
2024-02-26T21:08:57.076Z,55.57
2024-02-26T21:14:00.847Z,50.07
2024-02-26T21:19:06.996Z,57.13
2024-02-26T21:24:10.771Z,53.00
2024-02-26T21:29:14.238Z,54.40
2024-02-26T21:34:18.468Z,41.03
2024-02-26T21:39:22.072Z,41.27
2024-02-26T21:44:25.512Z,42.90
2024-02-26T21:49:29.080Z,44.03
2024-02-26T21:54:36.984Z,41.83
2024-02-26T21:59:40.444Z,47.50
2024-02-26T22:04:43.960Z,38.47
2024-02-26T22:09:47.449Z,41.33
2024-02-26T22:14:51.229Z,41.47
2024-02-26T22:19:55.008Z,38.00
2024-02-26T22:24:58.566Z,42.83
2024-02-26T22:30:03.343Z,50.90
2024-02-26T22:35:07.205Z,44.13
2024-02-26T22:40:11.459Z,46.67
2024-02-26T22:45:16.340Z,56.13
2024-02-26T22:50:28.987Z,46.43
2024-02-26T22:55:32.436Z,65.03
2024-02-26T23:00:37.012Z,52.77
2024-02-26T23:05:40.610Z,47.27
2024-02-26T23:10:44.255Z,52.80
2024-02-26T23:15:47.835Z,64.57
2024-02-26T23:20:51.448Z,52.83
2024-02-26T23:25:54.874Z,56.30
2024-02-26T23:30:58.614Z,63.97
2024-02-26T23:36:02.161Z,54.43
2024-02-26T23:41:05.547Z,61.17
2024-02-26T23:46:10.224Z,58.27
2024-02-26T23:51:13.745Z,54.73
2024-02-26T23:56:17.134Z,51.47
